Time;durP1;ratioP1;P1;durP2;ratioP2;P2;SDS_P1;SDS_P2;PMS_P1;PMS_P2;Temp;Humidity;BMP_temperature;BMP_pressure;BME280_temperature;BME280_humidity;BME280_pressure;Samples;Min_cycle;Max_cycle;Signal;HPM_P1;HPM_P2
2023/07/20 00:01:04;;;;;;;1.20;1.10;;;16.40;99.90;;;;;;4964833;28;20063;-70
2023/07/20 00:03:30;;;;;;;3.20;1.20;;;16.10;99.90;;;;;;4965063;28;20130;-70
2023/07/20 00:05:55;;;;;;;1.50;1.05;;;16.90;99.90;;;;;;4897017;29;1061662;-70
2023/07/20 00:08:21;;;;;;;1.27;1.10;;;17.20;99.90;;;;;;4965910;28;20504;-70
2023/07/20 00:10:47;;;;;;;1.10;1.00;;;16.00;99.90;;;;;;4965550;28;20052;-69
2023/07/20 00:13:13;;;;;;;2.10;1.60;;;16.20;99.90;;;;;;4933483;29;20491;-70
2023/07/20 00:15:38;;;;;;;1.23;1.10;;;16.00;99.90;;;;;;4965660;28;20044;-69
2023/07/20 00:18:05;;;;;;;1.63;1.45;;;16.00;99.90;;;;;;4965722;28;20039;-70
2023/07/20 00:20:31;;;;;;;2.50;1.35;;;15.80;99.90;;;;;;4965345;28;20066;-69
2023/07/20 00:22:57;;;;;;;2.13;1.35;;;15.80;99.90;;;;;;4949398;28;20488;-70
2023/07/20 00:25:24;;;;;;;3.13;1.67;;;15.70;99.90;;;;;;4933181;29;20498;-70
2023/07/20 00:27:49;;;;;;;2.00;1.45;;;15.90;99.90;;;;;;4937716;29;20036;-70
2023/07/20 00:30:15;;;;;;;2.25;1.40;;;15.80;99.90;;;;;;4937117;29;20036;-70
2023/07/20 00:32:42;;;;;;;1.60;1.45;;;15.70;99.90;;;;;;4937295;29;20459;-69
2023/07/20 00:35:08;;;;;;;1.60;1.35;;;16.10;99.90;;;;;;4969332;28;20047;-70
2023/07/20 00:37:34;;;;;;;3.63;1.60;;;15.50;99.90;;;;;;4969458;28;20099;-70
2023/07/20 00:40:00;;;;;;;1.83;1.52;;;15.60;99.90;;;;;;4953499;29;20452;-70
2023/07/20 00:42:25;;;;;;;3.35;1.60;;;15.50;99.90;;;;;;4939119;29;20028;-70
2023/07/20 00:44:51;;;;;;;3.88;1.65;;;15.40;99.90;;;;;;4938651;28;20491;-70
2023/07/20 00:47:16;;;;;;;1.52;1.38;;;15.80;99.90;;;;;;4953207;29;20043;-70
2023/07/20 00:49:43;;;;;;;2.67;1.80;;;15.50;99.90;;;;;;4939374;28;20047;-70
2023/07/20 00:52:13;;;;;;;2.38;1.63;;;15.60;99.90;;;;;;4940833;28;20385;-69
2023/07/20 00:54:39;;;;;;;3.80;1.90;;;15.70;99.90;;;;;;4970569;28;20170;-70
2023/07/20 00:57:07;;;;;;;3.72;1.90;;;15.60;99.90;;;;;;4938014;29;20047;-70
2023/07/20 00:59:33;;;;;;;4.28;1.80;;;15.30;99.90;;;;;;4936636;29;20047;-69
2023/07/20 01:01:58;;;;;;;3.85;2.10;;;15.50;99.90;;;;;;4968819;28;20044;-69
2023/07/20 01:04:26;;;;;;;2.85;1.98;;;15.40;99.90;;;;;;4969002;28;20051;-70
2023/07/20 01:07:02;;;;;;;4.47;1.92;;;15.60;99.90;;;;;;4968610;28;20048;-70
2023/07/20 01:09:43;;;;;;;2.58;2.10;;;15.50;99.90;;;;;;4938138;29;20040;-70
2023/07/20 01:12:23;;;;;;;3.72;2.78;;;15.40;99.90;;;;;;4936775;29;20172;-69
2023/07/20 01:14:49;;;;;;;4.05;1.90;;;15.30;99.90;;;;;;4968658;28;20043;-69
2023/07/20 01:17:15;;;;;;;3.10;2.03;;;15.40;99.90;;;;;;4937754;29;20046;-69
2023/07/20 01:19:40;;;;;;;2.30;1.88;;;15.50;99.90;;;;;;4968101;28;20448;-70
2023/07/20 01:22:12;;;;;;;4.47;2.28;;;15.10;99.90;;;;;;4968446;28;20071;-69
2023/07/20 01:25:16;;;;;;;2.73;1.73;;;15.30;99.90;;;;;;4968530;28;20058;-69
2023/07/20 01:27:50;;;;;;;1.67;1.58;;;15.40;99.90;;;;;;4939039;29;20438;-69
2023/07/20 01:30:24;;;;;;;3.25;2.40;;;15.00;99.90;;;;;;4970878;28;20499;-69
2023/07/20 01:32:54;;;;;;;2.80;2.00;;;15.20;99.90;;;;;;4968451;28;20052;-69
2023/07/20 01:35:23;;;;;;;2.05;1.83;;;15.10;99.90;;;;;;4937451;29;20163;-69
2023/07/20 01:37:50;;;;;;;3.60;2.00;;;15.00;99.90;;;;;;4936030;29;20134;-69
2023/07/20 01:40:16;;;;;;;3.67;2.15;;;15.40;99.90;;;;;;4936993;29;20438;-69
2023/07/20 01:42:48;;;;;;;3.10;2.13;;;15.00;99.90;;;;;;4968275;28;20118;-69
2023/07/20 01:45:14;;;;;;;3.53;2.00;;;14.90;99.90;;;;;;4935946;29;20447;-69
2023/07/20 01:47:40;;;;;;;2.33;1.88;;;15.10;99.90;;;;;;4936077;29;20130;-69
2023/07/20 01:50:06;;;;;;;3.38;2.10;;;15.00;99.90;;;;;;4936781;29;20042;-69
2023/07/20 01:52:32;;;;;;;4.00;3.13;;;15.00;99.90;;;;;;4937003;29;20036;-69
2023/07/20 01:54:58;;;;;;;2.20;1.90;;;14.90;99.90;;;;;;4951761;29;20039;-70
2023/07/20 01:57:23;;;;;;;4.35;2.33;;;14.90;99.90;;;;;;4937422;29;20051;-70
2023/07/20 01:59:49;;;;;;;3.67;2.55;;;14.90;99.90;;;;;;4936961;29;20053;-70
2023/07/20 02:02:15;;;;;;;2.65;2.17;;;14.90;99.90;;;;;;4937387;28;20050;-70
2023/07/20 02:04:40;;;;;;;2.85;2.13;;;14.80;99.90;;;;;;4967998;28;20152;-69
2023/07/20 02:07:06;;;;;;;2.20;2.00;;;14.80;99.90;;;;;;4937394;28;20415;-69
2023/07/20 02:09:32;;;;;;;4.40;2.10;;;14.90;99.90;;;;;;4936412;29;20510;-69
2023/07/20 02:11:57;;;;;;;2.40;2.20;;;14.90;99.90;;;;;;4967689;28;20082;-69
2023/07/20 02:14:23;;;;;;;3.50;2.50;;;14.60;99.90;;;;;;4936666;29;20443;-69
2023/07/20 02:16:52;;;;;;;2.30;2.08;;;14.80;99.90;;;;;;4967720;28;20043;-69
2023/07/20 02:19:18;;;;;;;2.80;1.92;;;14.60;99.90;;;;;;4967349;28;20527;-69
2023/07/20 02:21:44;;;;;;;3.58;2.03;;;14.80;99.90;;;;;;4967782;28;20407;-68
2023/07/20 02:24:11;;;;;;;3.55;2.13;;;14.50;99.90;;;;;;4951502;29;20059;-69
2023/07/20 02:26:37;;;;;;;4.63;2.13;;;14.70;99.90;;;;;;4934981;29;20074;-69
2023/07/20 02:29:04;;;;;;;2.95;2.20;;;14.40;99.90;;;;;;4950763;29;20487;-68
2023/07/20 02:31:30;;;;;;;2.35;2.03;;;14.70;99.90;;;;;;4936578;28;20044;-69
2023/07/20 02:33:56;;;;;;;3.50;2.00;;;14.40;99.90;;;;;;4935081;29;20499;-69
2023/07/20 02:36:22;;;;;;;5.63;1.92;;;;;;;;;;4936174;29;20049;-70
2023/07/20 02:38:47;;;;;;;3.72;2.15;;;14.60;99.90;;;;;;4934522;29;20051;-67
2023/07/20 02:41:14;;;;;;;3.75;1.80;;;14.50;99.90;;;;;;4967259;28;20055;-69
2023/07/20 02:43:39;;;;;;;2.33;2.13;;;14.40;99.90;;;;;;4934998;29;20443;-69
2023/07/20 02:46:05;;;;;;;2.80;2.10;;;14.40;99.90;;;;;;4936022;28;20040;-69
2023/07/20 02:48:30;;;;;;;3.30;2.15;;;14.30;99.90;;;;;;4934687;29;20038;-69
2023/07/20 02:50:56;;;;;;;6.47;1.98;;;;;;;;;;4935143;29;20048;-69
2023/07/20 02:53:22;;;;;;;3.95;1.95;;;14.30;99.90;;;;;;4934645;29;20044;-69
2023/07/20 02:55:47;;;;;;;2.75;2.17;;;14.50;99.90;;;;;;4966745;28;20463;-69
2023/07/20 02:58:13;;;;;;;2.05;1.85;;;14.40;99.90;;;;;;4966832;28;20035;-69
2023/07/20 03:00:39;;;;;;;2.67;1.98;;;;;;;;;;4966482;28;20566;-69
2023/07/20 03:03:09;;;;;;;4.05;2.25;;;;;;;;;;4935711;29;20048;-69
2023/07/20 03:05:37;;;;;;;4.75;2.13;;;14.60;99.90;;;;;;4935755;29;20176;-69
2023/07/20 03:08:06;;;;;;;2.90;2.10;;;;;;;;;;4934278;29;20094;-69
2023/07/20 03:10:32;;;;;;;3.85;2.10;;;;;;;;;;4950905;29;20071;-69
2023/07/20 03:12:58;;;;;;;3.10;2.08;;;14.40;99.90;;;;;;4951066;29;20518;-69
2023/07/20 03:15:24;;;;;;;2.47;2.28;;;;;;;;;;4936335;29;20032;-69
2023/07/20 03:17:51;;;;;;;2.38;2.15;;;14.40;99.90;;;;;;4950660;29;20043;-69
2023/07/20 03:20:17;;;;;;;4.40;2.35;;;;;;;;;;4965818;28;20047;-69
2023/07/20 03:22:43;;;;;;;2.90;2.53;;;14.50;99.90;;;;;;4934459;29;20043;-67
2023/07/20 03:25:09;;;;;;;2.70;2.35;;;14.30;99.90;;;;;;4933945;29;20046;-69
2023/07/20 03:27:34;;;;;;;3.45;2.47;;;14.30;99.90;;;;;;4966250;28;20048;-68
2023/07/20 03:30:00;;;;;;;2.33;2.10;;;14.30;99.90;;;;;;4933694;29;20060;-69
2023/07/20 03:32:26;;;;;;;2.67;2.35;;;;;;;;;;4950011;28;20068;-69
2023/07/20 03:34:52;;;;;;;4.75;2.38;;;;;;;;;;4933943;29;20055;-69
2023/07/20 03:37:18;;;;;;;3.55;2.42;;;14.40;99.90;;;;;;4935211;29;20051;-69
2023/07/20 03:39:43;;;;;;;2.22;2.00;;;14.50;99.90;;;;;;4934651;29;20039;-69
2023/07/20 03:42:09;;;;;;;3.83;2.28;;;14.50;99.90;;;;;;4965672;28;20095;-69
2023/07/20 03:44:35;;;;;;;5.50;2.58;;;;;;;;;;4965769;28;20048;-69
2023/07/20 03:47:01;;;;;;;3.08;2.10;;;;;;;;;;4933538;29;20546;-69
2023/07/20 03:49:27;;;;;;;1.98;1.77;;;14.50;99.90;;;;;;4934574;29;20043;-68
2023/07/20 03:51:53;;;;;;;3.10;2.50;;;14.40;99.90;;;;;;4934832;28;20047;-68
2023/07/20 03:54:18;;;;;;;2.88;2.20;;;14.30;99.90;;;;;;4965582;28;20559;-68
2023/07/20 03:56:44;;;;;;;3.25;2.22;;;14.40;99.90;;;;;;4965548;28;20044;-68
2023/07/20 03:59:10;;;;;;;3.47;2.10;;;14.40;99.90;;;;;;4965300;28;20134;-68
2023/07/20 04:01:36;;;;;;;2.78;2.15;;;14.30;99.90;;;;;;4949424;28;20542;-69
2023/07/20 04:04:06;;;;;;;2.70;2.50;;;14.40;99.90;;;;;;4965480;28;20570;-68
2023/07/20 04:06:32;;;;;;;4.10;2.30;;;;;;;;;;4934531;29;20046;-68
2023/07/20 04:08:58;;;;;;;6.05;2.35;;;14.50;99.90;;;;;;4933133;29;20039;-68
2023/07/20 04:11:23;;;;;;;2.80;2.47;;;14.30;99.90;;;;;;4934655;29;20085;-68
2023/07/20 04:13:49;;;;;;;7.35;3.38;;;14.20;99.90;;;;;;4933458;29;20074;-68
2023/07/20 04:16:15;;;;;;;2.97;2.53;;;14.30;99.90;;;;;;4965427;28;20058;-68
2023/07/20 04:18:40;;;;;;;3.22;2.50;;;14.30;99.90;;;;;;4934467;29;20046;-68
2023/07/20 04:21:08;;;;;;;4.22;2.95;;;14.30;99.90;;;;;;4965174;28;20392;-68
2023/07/20 04:23:35;;;;;;;2.42;2.22;;;14.50;99.90;;;;;;4934734;29;20059;-68
2023/07/20 04:26:01;;;;;;;4.32;2.88;;;14.20;99.90;;;;;;4934564;29;20139;-68
2023/07/20 04:28:27;;;;;;;5.45;3.20;;;14.30;99.90;;;;;;4949133;29;20036;-69
2023/07/20 04:30:53;;;;;;;5.43;2.90;;;;;;;;;;4934190;29;20032;-68
2023/07/20 04:33:19;;;;;;;5.22;2.75;;;;;;;;;;4934377;29;20039;-68
2023/07/20 04:35:53;;;;;;;5.60;2.75;;;15.20;99.90;;;;;;4933219;29;20127;-69
2023/07/20 04:38:19;;;;;;;2.60;2.38;;;14.40;99.90;;;;;;4933409;29;20067;-68
2023/07/20 04:40:46;;;;;;;2.97;2.63;;;14.50;99.90;;;;;;4932760;29;20091;-68
2023/07/20 04:43:12;;;;;;;3.05;2.60;;;14.50;99.90;;;;;;4934379;29;20039;-69
2023/07/20 04:45:38;;;;;;;3.20;2.58;;;14.50;99.90;;;;;;4934221;29;20103;-67
2023/07/20 04:48:11;;;;;;;3.25;2.40;;;14.60;99.90;;;;;;4933239;29;20059;-68
2023/07/20 04:50:37;;;;;;;7.18;2.92;;;14.60;99.90;;;;;;4965307;28;20050;-68
2023/07/20 04:53:03;;;;;;;2.97;2.42;;;14.60;99.90;;;;;;4965163;28;20079;-68
2023/07/20 04:55:29;;;;;;;4.00;2.83;;;14.70;99.90;;;;;;4965259;28;20079;-69
2023/07/20 04:57:54;;;;;;;3.78;2.65;;;14.60;99.90;;;;;;4966243;28;20130;-68
2023/07/20 05:00:21;;;;;;;3.25;2.20;;;14.90;99.90;;;;;;4935197;28;20047;-68
2023/07/20 05:02:48;;;;;;;5.50;2.60;;;14.90;99.90;;;;;;4949890;29;20059;-69
2023/07/20 05:05:15;;;;;;;3.35;2.45;;;15.10;99.90;;;;;;4965049;28;20047;-69
2023/07/20 05:07:41;;;;;;;4.07;2.38;;;;;;;;;;4964980;28;20047;-68
2023/07/20 05:10:07;;;;;;;4.68;2.42;;;15.10;99.90;;;;;;4932541;29;20050;-69
2023/07/20 05:12:33;;;;;;;4.78;3.28;;;15.00;99.90;;;;;;4934245;29;20395;-69
2023/07/20 05:14:59;;;;;;;3.13;2.20;;;;;;;;;;4936417;29;20042;-69
2023/07/20 05:17:24;;;;;;;11.52;3.00;;;15.20;99.90;;;;;;4938049;29;20230;-68
2023/07/20 05:19:50;;;;;;;2.53;2.30;;;15.20;99.90;;;;;;4937464;28;20040;-69
2023/07/20 05:22:16;;;;;;;7.45;2.25;;;15.30;99.90;;;;;;4936391;29;20044;-69
2023/07/20 05:24:42;;;;;;;2.55;2.08;;;15.30;99.90;;;;;;4938051;29;20079;-68
2023/07/20 05:27:08;;;;;;;2.55;2.35;;;15.40;99.90;;;;;;4936400;29;20416;-68
2023/07/20 05:29:34;;;;;;;3.05;2.30;;;15.70;99.90;;;;;;4968145;28;20122;-68
2023/07/20 05:32:00;;;;;;;3.20;2.20;;;;;;;;;;4953140;29;20122;-68
2023/07/20 05:34:25;;;;;;;4.47;2.17;;;15.80;99.90;;;;;;4936804;29;20051;-68
2023/07/20 05:36:51;;;;;;;5.53;3.03;;;15.90;99.90;;;;;;4937946;29;20055;-69
2023/07/20 05:39:18;;;;;;;4.07;2.50;;;15.90;99.90;;;;;;4935991;29;20043;-68
2023/07/20 05:41:43;;;;;;;4.82;2.70;;;16.00;99.90;;;;;;4968159;28;20044;-68
2023/07/20 05:44:09;;;;;;;6.75;1.98;;;15.90;99.90;;;;;;4967971;28;20462;-68
2023/07/20 05:46:35;;;;;;;2.28;2.00;;;16.30;99.90;;;;;;4951705;29;20525;-69
2023/07/20 05:49:01;;;;;;;3.38;2.40;;;;;;;;;;4967898;28;20069;-68
2023/07/20 05:51:27;;;;;;;3.83;1.58;;;16.10;99.90;;;;;;4952098;28;20040;-68
2023/07/20 05:53:53;;;;;;;7.63;1.92;;;16.20;99.90;;;;;;4968249;28;20411;-68
2023/07/20 05:56:19;;;;;;;7.13;2.13;;;;;;;;;;4937223;29;20126;-68
2023/07/20 05:58:45;;;;;;;4.93;1.70;;;;;;;;;;4936938;29;20061;-68
2023/07/20 06:01:11;;;;;;;4.63;1.67;;;;;;;;;;4935584;29;20506;-69
2023/07/20 06:03:37;;;;;;;8.57;2.60;;;16.30;99.90;;;;;;4937028;29;20324;-69
2023/07/20 06:06:09;;;;;;;1.90;1.80;;;16.30;99.90;;;;;;4967682;28;20107;-68
2023/07/20 06:08:34;;;;;;;4.13;2.10;;;16.40;99.90;;;;;;4935854;29;20406;-68
2023/07/20 06:11:00;;;;;;;3.80;2.28;;;16.40;99.90;;;;;;4967553;28;20130;-68
2023/07/20 06:13:26;;;;;;;4.05;2.00;;;;;;;;;;4936579;28;20495;-69
2023/07/20 06:15:52;;;;;;;4.05;2.97;;;16.60;99.90;;;;;;4951387;29;20047;-68
2023/07/20 06:18:18;;;;;;;8.73;4.30;;;16.70;99.90;;;;;;4967925;28;20102;-69
2023/07/20 06:20:49;;;;;;;7.43;3.60;;;16.70;99.90;;;;;;4936488;28;20040;-68
2023/07/20 06:23:15;;;;;;;10.75;4.40;;;16.80;99.90;;;;;;4936666;29;20044;-68
2023/07/20 06:25:40;;;;;;;4.45;1.77;;;17.00;99.90;;;;;;4934222;29;20095;-68
2023/07/20 06:28:06;;;;;;;3.42;1.42;;;;;;;;;;4967121;28;20051;-69
2023/07/20 06:30:34;;;;;;;3.40;2.53;;;17.10;99.90;;;;;;4966729;28;20492;-68
2023/07/20 06:33:00;;;;;;;2.90;1.92;;;17.10;99.90;;;;;;4967129;28;20044;-68
2023/07/20 06:35:26;;;;;;;4.70;1.42;;;17.20;99.90;;;;;;4936215;29;20046;-69
2023/07/20 06:37:52;;;;;;;5.53;2.33;;;17.20;99.90;;;;;;4936166;29;20096;-69
2023/07/20 06:40:17;;;;;;;5.97;2.42;;;17.40;99.90;;;;;;4935816;28;20043;-69
2023/07/20 06:42:43;;;;;;;7.65;2.45;;;17.50;99.90;;;;;;4966958;28;20047;-69
2023/07/20 06:45:09;;;;;;;4.18;2.33;;;17.40;99.90;;;;;;4966756;28;20036;-69
2023/07/20 06:47:35;;;;;;;5.07;2.20;;;;;;;;;;4936156;29;20419;-68
2023/07/20 06:50:01;;;;;;;5.93;1.67;;;;;;;;;;4935738;29;20035;-68
2023/07/20 06:52:27;;;;;;;4.28;2.13;;;17.80;99.90;;;;;;4934669;29;20039;-68
2023/07/20 06:54:52;;;;;;;5.20;2.70;;;17.90;99.90;;;;;;4935756;29;20046;-68
2023/07/20 06:57:18;;;;;;;8.38;2.83;;;17.90;99.90;;;;;;4935834;29;20048;-68
2023/07/20 06:59:44;;;;;;;5.70;1.50;;;18.20;99.90;;;;;;4935576;29;20039;-68
2023/07/20 07:02:09;;;;;;;3.05;1.20;;;18.20;99.90;;;;;;4966825;28;20048;-69
2023/07/20 07:04:35;;;;;;;4.60;1.45;;;18.20;99.90;;;;;;4966623;28;20051;-68
2023/07/20 07:07:01;;;;;;;4.63;1.42;;;18.30;99.90;;;;;;4935420;28;20047;-69
2023/07/20 07:09:27;;;;;;;1.98;0.98;;;18.30;99.90;;;;;;4966526;28;20189;-69
2023/07/20 07:11:53;;;;;;;2.95;1.02;;;18.50;99.90;;;;;;4966329;28;20122;-68
2023/07/20 07:14:20;;;;;;;3.05;1.40;;;18.80;99.90;;;;;;4966576;28;20036;-69
2023/07/20 07:16:45;;;;;;;7.25;1.95;;;18.90;99.90;;;;;;4935497;29;20496;-69
2023/07/20 07:19:11;;;;;;;4.10;1.60;;;19.00;99.90;;;;;;4935307;29;20082;-69
2023/07/20 07:21:36;;;;;;;3.30;1.10;;;18.60;99.90;;;;;;4935808;29;20098;-68
2023/07/20 07:24:03;;;;;;;4.28;1.02;;;18.90;99.90;;;;;;4966081;28;20039;-69
2023/07/20 07:26:29;;;;;;;2.47;1.70;;;19.00;99.90;;;;;;4935325;28;20043;-69
2023/07/20 07:28:54;;;;;;;2.38;1.27;;;18.90;99.90;;;;;;4965836;28;20045;-68
2023/07/20 07:31:20;;;;;;;5.18;2.85;;;19.10;99.90;;;;;;4966047;28;20035;-69
2023/07/20 07:33:46;;;;;;;4.20;1.50;;;18.40;99.90;;;;;;4965961;28;20043;-69
2023/07/20 07:36:12;;;;;;;4.85;2.03;;;18.10;99.90;;;;;;4965594;28;20047;-69
2023/07/20 07:38:38;;;;;;;5.78;2.42;;;;;;;;;;4965873;28;20046;-68
2023/07/20 07:41:03;;;;;;;3.35;1.70;;;17.80;99.90;;;;;;4933529;29;20070;-69
2023/07/20 07:43:29;;;;;;;3.95;1.92;;;17.50;99.90;;;;;;4965838;28;20039;-69
2023/07/20 07:45:55;;;;;;;3.70;1.90;;;17.40;99.90;;;;;;4933543;29;20036;-69
2023/07/20 07:48:22;;;;;;;2.33;1.60;;;17.50;99.90;;;;;;4965730;28;20435;-69
2023/07/20 07:50:47;;;;;;;3.03;1.58;;;17.50;99.90;;;;;;4965477;28;20367;-69
2023/07/20 07:53:13;;;;;;;3.92;1.80;;;17.90;99.90;;;;;;4965683;28;20071;-67
2023/07/20 07:55:39;;;;;;;2.33;1.75;;;18.30;99.90;;;;;;4965911;28;20051;-69
2023/07/20 07:58:04;;;;;;;3.58;1.75;;;18.80;99.90;;;;;;4935220;28;20046;-69
2023/07/20 08:00:30;;;;;;;7.22;2.10;;;19.00;99.90;;;;;;4965891;28;20048;-68
2023/07/20 08:02:56;;;;;;;3.92;1.75;;;18.90;99.90;;;;;;4966073;28;20044;-69
2023/07/20 08:05:22;;;;;;;4.35;2.05;;;;;;;;;;4966112;28;20036;-69
2023/07/20 08:07:47;;;;;;;3.22;1.70;;;19.20;99.90;;;;;;4933335;29;20496;-70
2023/07/20 08:10:13;;;;;;;4.22;2.13;;;19.00;99.90;;;;;;4965323;28;20043;-70
2023/07/20 08:12:39;;;;;;;2.65;1.80;;;19.10;99.90;;;;;;4965302;28;20408;-69
2023/07/20 08:15:05;;;;;;;4.68;2.10;;;19.10;99.90;;;;;;4965468;28;20043;-69
2023/07/20 08:17:30;;;;;;;3.92;1.95;;;19.20;99.90;;;;;;4949092;29;20051;-69
2023/07/20 08:19:56;;;;;;;3.83;2.20;;;19.40;99.90;;;;;;4965051;28;20046;-69
2023/07/20 08:22:22;;;;;;;5.15;2.08;;;19.50;99.90;;;;;;4965176;28;20500;-70
2023/07/20 08:24:47;;;;;;;5.30;1.95;;;19.70;99.90;;;;;;4933444;29;20043;-70
2023/07/20 08:27:13;;;;;;;3.05;1.63;;;19.50;99.90;;;;;;4934728;28;20396;-70
2023/07/20 08:29:38;;;;;;;2.85;1.45;;;19.70;99.90;;;;;;4933347;29;20566;-69
2023/07/20 08:32:05;;;;;;;5.53;1.90;;;19.80;99.90;;;;;;4965379;28;20038;-69
2023/07/20 08:34:31;;;;;;;5.28;1.90;;;20.00;99.90;;;;;;4965097;28;20035;-68
2023/07/20 08:36:58;;;;;;;4.47;1.98;;;20.10;99.90;;;;;;4932933;29;20094;-70
2023/07/20 08:39:24;;;;;;;5.15;1.83;;;19.60;99.90;;;;;;4964708;28;20083;-70
2023/07/20 08:41:50;;;;;;;2.85;1.80;;;19.80;99.90;;;;;;4965176;28;20087;-69
2023/07/20 08:44:15;;;;;;;6.68;2.03;;;19.80;99.90;;;;;;4965162;28;20542;-69
2023/07/20 08:46:43;;;;;;;6.00;1.73;;;20.10;99.90;;;;;;4932912;29;20058;-70
2023/07/20 08:49:11;;;;;;;4.60;1.60;;;19.30;99.90;;;;;;4967877;28;20055;-70
2023/07/20 08:51:37;;;;;;;4.63;2.20;;;19.70;99.90;;;;;;4936990;29;20400;-70
2023/07/20 08:54:02;;;;;;;5.35;2.40;;;19.70;99.90;;;;;;4936983;29;20047;-69
2023/07/20 08:56:30;;;;;;;4.35;2.13;;;19.60;99.90;;;;;;4936960;29;20198;-70
2023/07/20 08:58:58;;;;;;;5.25;2.25;;;19.20;99.90;;;;;;4936407;29;20055;-70
2023/07/20 09:01:24;;;;;;;5.68;2.45;;;19.30;99.90;;;;;;4968869;28;20054;-70
2023/07/20 09:03:50;;;;;;;6.70;2.50;;;19.00;99.90;;;;;;4937811;28;20051;-70
2023/07/20 09:06:16;;;;;;;6.13;2.50;;;19.10;99.90;;;;;;4936209;29;20036;-70
2023/07/20 09:08:42;;;;;;;4.95;1.98;;;19.10;99.90;;;;;;4968497;28;20642;-70
2023/07/20 09:11:08;;;;;;;6.68;2.22;;;18.90;99.90;;;;;;4968270;28;20031;-70
2023/07/20 09:13:34;;;;;;;6.13;1.83;;;19.00;99.90;;;;;;4936369;29;20044;-70
2023/07/20 09:16:00;;;;;;;4.70;1.60;;;18.90;99.90;;;;;;4936339;29;20047;-69
2023/07/20 09:18:30;;;;;;;5.75;2.30;;;19.00;99.90;;;;;;4936722;29;20054;-71
2023/07/20 09:21:02;;;;;;;4.13;2.15;;;19.20;99.90;;;;;;4967920;28;20079;-70
2023/07/20 09:23:35;;;;;;;6.07;1.92;;;19.00;99.90;;;;;;4936612;29;20059;-70
2023/07/20 09:26:13;;;;;;;3.97;1.77;;;19.50;99.90;;;;;;4936292;29;20574;-69
2023/07/20 09:28:44;;;;;;;2.60;1.38;;;19.50;99.90;;;;;;4936192;29;20043;-70
2023/07/20 09:31:20;;;;;;;3.15;1.60;;;20.00;99.90;;;;;;4951868;29;20039;-69
2023/07/20 09:33:47;;;;;;;5.15;1.27;;;20.40;99.90;;;;;;4968070;28;20048;-70
2023/07/20 09:36:13;;;;;;;5.28;2.67;;;20.40;99.90;;;;;;4968270;28;20048;-70
2023/07/20 09:38:43;;;;;;;3.60;1.33;;;19.40;99.90;;;;;;4935921;29;20102;-70
2023/07/20 09:41:13;;;;;;;2.22;1.23;;;19.50;99.90;;;;;;4935733;29;20558;-69
2023/07/20 09:43:39;;;;;;;5.80;1.15;;;19.70;99.90;;;;;;4936000;29;20055;-69
2023/07/20 09:46:05;;;;;;;3.47;1.05;;;19.50;99.90;;;;;;4968020;28;20070;-70
2023/07/20 09:48:31;;;;;;;5.28;1.35;;;19.50;99.90;;;;;;4968129;28;20503;-70
2023/07/20 09:50:57;;;;;;;4.93;1.48;;;19.90;99.90;;;;;;4967617;28;20480;-69
2023/07/20 09:53:25;;;;;;;4.30;1.27;;;20.30;99.90;;;;;;4967811;28;20050;-70
2023/07/20 09:55:51;;;;;;;4.90;1.70;;;20.80;99.90;;;;;;4935564;29;20541;-70
2023/07/20 09:58:17;;;;;;;6.30;1.50;;;20.50;99.90;;;;;;4967752;28;20048;-69
2023/07/20 10:00:49;;;;;;;4.47;1.75;;;20.30;99.90;;;;;;4936870;28;20297;-70
2023/07/20 10:03:18;;;;;;;1.27;1.05;;;20.90;99.90;;;;;;4935684;29;20504;-69
2023/07/20 10:05:56;;;;;;;3.47;1.58;;;20.20;99.90;;;;;;4967297;28;20511;-70
2023/07/20 10:08:25;;;;;;;3.75;1.30;;;20.10;99.90;;;;;;4935441;29;20415;-70
2023/07/20 10:10:51;;;;;;;3.58;1.40;;;20.30;99.90;;;;;;4935144;29;20135;-70
2023/07/20 10:13:27;;;;;;;2.42;1.20;;;20.70;99.90;;;;;;4967494;28;20079;-70
2023/07/20 10:16:07;;;;;;;3.55;1.48;;;20.90;99.90;;;;;;4936645;29;20050;-70
2023/07/20 10:18:51;;;;;;;3.10;1.40;;;21.10;99.90;;;;;;4936916;29;20048;-69
2023/07/20 10:21:19;;;;;;;5.45;1.65;;;21.30;99.90;;;;;;4935341;29;20067;-71
2023/07/20 10:23:45;;;;;;;3.47;1.90;;;21.20;99.90;;;;;;4967417;28;20036;-70
2023/07/20 10:26:11;;;;;;;3.45;1.25;;;21.50;99.90;;;;;;4967273;28;20048;-70
2023/07/20 10:28:39;;;;;;;4.40;1.50;;;21.10;99.90;;;;;;4935263;29;20086;-70
2023/07/20 10:31:07;;;;;;;3.70;1.80;;;21.00;99.90;;;;;;4966935;28;20044;-70
2023/07/20 10:33:32;;;;;;;3.63;1.30;;;21.30;99.90;;;;;;4936233;29;20048;-70
2023/07/20 10:36:05;;;;;;;3.03;1.50;;;20.90;99.90;;;;;;4967207;28;20051;-70
2023/07/20 10:38:52;;;;;;;2.28;1.15;;;21.00;99.90;;;;;;4966448;28;20059;-70
2023/07/20 10:41:35;;;;;;;1.58;1.30;;;20.80;99.90;;;;;;4934998;29;20040;-70
2023/07/20 10:44:07;;;;;;;5.90;2.35;;;20.90;99.90;;;;;;4951147;29;20434;-70
2023/07/20 10:46:40;;;;;;;3.15;1.48;;;20.80;99.90;;;;;;4950578;29;20047;-69
2023/07/20 10:49:08;;;;;;;4.38;1.48;;;21.00;99.90;;;;;;4966521;28;20047;-71
2023/07/20 10:51:45;;;;;;;3.15;1.35;;;21.30;99.90;;;;;;4966799;28;20043;-70
2023/07/20 10:54:19;;;;;;;4.55;1.58;;;21.70;99.90;;;;;;4951105;28;20407;-70
2023/07/20 10:56:50;;;;;;;6.15;1.77;;;21.30;99.90;;;;;;4966639;28;20101;-70
2023/07/20 10:59:35;;;;;;;4.30;1.10;;;21.10;99.90;;;;;;4950420;28;20044;-70
2023/07/20 11:02:06;;;;;;;5.72;1.77;;;21.20;99.90;;;;;;4967031;28;20503;-70
2023/07/20 11:04:39;;;;;;;4.07;1.40;;;20.60;99.90;;;;;;4934924;29;20400;-70
2023/07/20 11:07:06;;;;;;;6.43;2.08;;;20.30;99.90;;;;;;4934121;29;20048;-70
2023/07/20 11:09:37;;;;;;;5.25;1.60;;;19.90;99.90;;;;;;4966304;28;20043;-69
2023/07/20 11:12:29;;;;;;;4.38;1.48;;;19.80;99.90;;;;;;4935212;28;20114;-70
2023/07/20 11:14:57;;;;;;;5.25;1.77;;;19.40;99.90;;;;;;4933382;29;20055;-70
2023/07/20 11:17:30;;;;;;;2.25;1.30;;;19.60;99.90;;;;;;4966170;28;20512;-70
2023/07/20 11:20:03;;;;;;;5.00;1.70;;;19.70;99.90;;;;;;4950127;28;20459;-70
2023/07/20 11:22:31;;;;;;;3.83;2.08;;;19.60;99.90;;;;;;4950181;28;20134;-70
2023/07/20 11:24:57;;;;;;;3.88;1.65;;;19.60;99.90;;;;;;4935362;29;20051;-70
2023/07/20 11:27:23;;;;;;;2.83;1.55;;;19.90;99.90;;;;;;4965975;28;20134;-70
2023/07/20 11:29:50;;;;;;;3.28;1.50;;;20.00;99.90;;;;;;4965778;28;20519;-70
2023/07/20 11:32:22;;;;;;;3.63;1.50;;;20.60;99.90;;;;;;4966305;28;20048;-70
2023/07/20 11:34:49;;;;;;;4.07;1.60;;;20.80;99.90;;;;;;4934504;29;20119;-70
2023/07/20 11:37:14;;;;;;;4.57;1.38;;;21.40;99.90;;;;;;4935235;29;20049;-70
2023/07/20 11:39:40;;;;;;;3.40;1.25;;;21.20;99.90;;;;;;4965871;28;20503;-70
2023/07/20 11:42:09;;;;;;;4.38;1.85;;;21.50;99.90;;;;;;4966302;28;20511;-70
2023/07/20 11:44:35;;;;;;;4.50;1.73;;;21.60;99.90;;;;;;4918132;29;20087;-70
2023/07/20 11:47:11;;;;;;;3.30;1.30;;;22.40;99.90;;;;;;4965770;28;20047;-70
2023/07/20 11:49:44;;;;;;;4.07;1.90;;;21.80;99.90;;;;;;4949413;29;20040;-70
2023/07/20 11:52:11;;;;;;;6.80;2.22;;;21.40;99.90;;;;;;4965929;28;20402;-70
2023/07/20 11:54:39;;;;;;;4.20;2.38;;;21.40;99.90;;;;;;4933799;29;20111;-70
2023/07/20 11:57:05;;;;;;;7.80;2.53;;;21.40;99.90;;;;;;4949355;28;20048;-70
2023/07/20 11:59:31;;;;;;;6.10;1.75;;;21.70;99.90;;;;;;4965296;28;20050;-70
2023/07/20 12:02:01;;;;;;;3.67;1.80;;;22.00;99.90;;;;;;4965553;28;20110;-70
2023/07/20 12:04:26;;;;;;;5.40;1.70;;;22.20;99.90;;;;;;4933513;29;20044;-70
2023/07/20 12:06:54;;;;;;;7.53;4.03;;;22.70;99.90;;;;;;4965353;28;20066;-70
2023/07/20 12:09:20;;;;;;;4.30;2.00;;;22.50;99.90;;;;;;4933349;29;20054;-70
2023/07/20 12:11:48;;;;;;;2.33;1.45;;;22.60;99.90;;;;;;4965355;28;20039;-70
2023/07/20 12:14:14;;;;;;;6.85;2.30;;;23.00;99.90;;;;;;4933606;29;20040;-70
2023/07/20 12:16:39;;;;;;;4.40;1.83;;;22.80;99.90;;;;;;4965195;28;20043;-70
2023/07/20 12:19:08;;;;;;;3.30;1.73;;;22.70;99.90;;;;;;4965100;28;20040;-70
2023/07/20 12:21:37;;;;;;;3.70;1.73;;;22.70;99.90;;;;;;4933030;29;20047;-70
2023/07/20 12:24:04;;;;;;;3.97;1.85;;;22.30;99.90;;;;;;4932724;29;20126;-70
2023/07/20 12:26:31;;;;;;;2.85;1.60;;;21.70;99.90;;;;;;4965125;28;20051;-70
2023/07/20 12:28:57;;;;;;;3.95;1.40;;;22.40;99.90;;;;;;4933223;29;20051;-70
2023/07/20 12:31:24;;;;;;;3.30;1.52;;;22.50;99.90;;;;;;4949300;28;20036;-70
2023/07/20 12:33:51;;;;;;;2.58;1.48;;;22.90;99.90;;;;;;4965515;28;20237;-70
2023/07/20 12:36:17;;;;;;;5.35;2.38;;;22.80;99.90;;;;;;4933681;29;20079;-70
2023/07/20 12:38:43;;;;;;;3.95;2.35;;;23.00;99.90;;;;;;4949643;29;20044;-71
2023/07/20 12:41:14;;;;;;;2.00;1.40;;;22.70;99.90;;;;;;4966453;28;20397;-70
2023/07/20 12:43:44;;;;;;;4.30;2.10;;;22.30;99.90;;;;;;4935526;29;20075;-70
2023/07/20 12:46:11;;;;;;;4.15;2.15;;;22.70;99.90;;;;;;4933161;29;20040;-70
2023/07/20 12:48:38;;;;;;;3.65;1.48;;;22.80;99.90;;;;;;4933481;29;20056;-70
2023/07/20 12:51:04;;;;;;;3.53;1.48;;;22.80;99.90;;;;;;4948737;28;20042;-70
2023/07/20 12:53:31;;;;;;;3.78;1.90;;;22.80;99.90;;;;;;4965089;28;20044;-70
2023/07/20 12:55:56;;;;;;;7.82;1.60;;;21.90;99.90;;;;;;4933145;29;20051;-70